.
WxDataArchive / Data Records for 2013-02-22
2013-02-21 February 2013 2013-02-23

Data Records for Friday, 22 February 2013

Time	Temp	Chill	HIndex	Humid	Dewpt	 Wind 	HiWind	WindDir	Rain 	Barom 
-----	----	-----	------	-----	-----	------	------	-------	-----	----- 
00:00	21.3	13.5	21.3	73	14.0	6	12	90	0.00	30.185 
00:05	21.3	11.8	21.3	75	14.6	8	14	90	0.00	30.185 
00:10	21.1	10.9	21.1	75	14.4	9	15	90	0.00	30.185 
00:15	21.1	10.2	21.1	75	14.4	10	17	90	0.00	30.170 
00:20	21.1	11.6	21.1	75	14.4	8	18	90	0.00	30.170 
00:25	21.3	11.8	21.3	75	14.6	8	15	112	0.00	30.170 
00:30	21.3	11.1	21.3	75	14.6	9	16	112	0.00	30.167 
00:35	21.3	12.6	21.3	75	14.6	7	16	90	0.00	30.167 
00:40	21.4	14.6	21.4	75	14.7	5	13	90	0.00	30.167 
00:45	21.6	14.9	21.6	75	14.9	5	11	90	0.00	30.171 
00:50	21.6	14.9	21.6	75	14.9	5	11	90	0.00	30.171 
00:55	21.6	13.8	21.6	75	14.9	6	16	112	0.00	30.171 
01:00	21.6	13.8	21.6	75	14.9	6	12	90	0.00	30.170 
01:05	21.6	13.8	21.6	75	14.9	6	13	90	0.00	30.170 
01:10	21.6	14.9	21.6	76	15.2	5	12	90	0.00	30.170 
01:15	21.4	11.9	21.4	76	15.0	8	14	90	0.00	30.148 
01:20	21.3	11.8	21.3	77	15.2	8	14	112	0.00	30.148 
01:25	21.0	11.5	21.0	80	15.8	8	14	90	0.00	30.148 
01:30	20.6	11.0	20.6	82	16.0	8	15	112	0.00	30.122 
01:35	20.5	11.6	20.5	83	16.2	7	14	90	0.00	30.122 
01:40	20.5	11.6	20.5	84	16.4	7	15	90	0.00	30.122 
01:45	20.3	11.4	20.3	84	16.3	7	13	112	0.00	30.105 
01:50	20.3	11.4	20.3	85	16.5	7	18	90	0.00	30.105 
01:55	20.2	9.8	20.2	86	16.7	9	17	90	0.00	30.105 
02:00	20.3	11.4	20.3	87	17.1	7	16	112	0.00	30.090 
02:05	20.3	11.4	20.3	87	17.1	7	14	90	0.00	30.090 
02:10	20.3	11.4	20.3	87	17.1	7	15	90	0.00	30.090 
02:15	20.3	13.3	20.3	88	17.3	5	12	90	0.00	30.088 
02:20	20.3	10.6	20.3	88	17.3	8	17	90	0.00	30.088 
02:25	20.3	10.6	20.3	88	17.3	8	14	90	0.00	30.088 
02:30	20.3	10.6	20.3	88	17.3	8	17	90	0.00	30.071 
02:35	20.5	10.8	20.5	88	17.5	8	15	90	0.00	30.071 
02:40	20.5	10.1	20.5	88	17.5	9	20	112	0.00	30.071 
02:45	20.5	11.6	20.5	88	17.5	7	13	90	0.00	30.069 
02:50	20.5	11.6	20.5	88	17.5	7	16	90	0.00	30.069 
02:55	20.5	11.6	20.5	88	17.5	7	15	90	0.00	30.069 
03:00	20.5	12.5	20.5	88	17.5	6	16	90	0.00	30.053 
03:05	20.6	13.7	20.6	88	17.6	5	16	90	0.00	30.053 
03:10	20.6	11.0	20.6	88	17.6	8	18	90	0.00	30.053 
03:15	20.6	10.2	20.6	88	17.6	9	15	90	0.00	30.032 
03:20	20.6	11.8	20.6	88	17.6	7	14	90	0.00	30.032 
03:25	20.8	12.0	20.8	88	17.8	7	15	90	0.00	30.032 
03:30	20.8	12.0	20.8	88	17.8	7	17	90	0.00	30.015 
03:35	20.8	10.5	20.8	88	17.8	9	19	90	0.00	30.015 
03:40	20.8	11.2	20.8	88	17.8	8	17	90	0.00	30.015 
03:45	20.8	11.2	20.8	88	17.8	8	16	90	0.00	30.010 
03:50	21.0	11.5	21.0	88	18.0	8	22	90	0.00	30.010 
03:55	21.0	10.7	21.0	88	18.0	9	16	90	0.00	30.010 
04:00	21.0	13.1	21.0	88	18.0	6	14	90	0.00	30.028 
04:05	21.1	12.4	21.1	88	18.1	7	16	90	0.00	30.028 
04:10	21.3	13.5	21.3	89	18.6	6	15	90	0.00	30.028 
04:15	21.4	11.9	21.4	89	18.7	8	14	90	0.00	29.995 
04:20	21.4	11.9	21.4	89	18.7	8	15	90	0.00	29.995 
04:25	21.6	13.0	21.6	89	18.9	7	14	90	0.00	29.995 
04:30	21.8	13.2	21.8	90	19.3	7	13	112	0.00	29.987 
04:35	21.8	13.2	21.8	90	19.3	7	15	90	0.00	29.987 
04:40	21.9	13.3	21.9	90	19.4	7	13	90	0.00	29.987 
04:45	21.9	15.2	21.9	90	19.4	5	12	112	0.00	29.977 
04:50	21.9	13.3	21.9	90	19.4	7	15	112	0.00	29.977 
04:55	21.9	14.2	21.9	90	19.4	6	13	90	0.00	29.977 
05:00	21.9	15.2	21.9	90	19.4	5	12	112	0.00	29.975 
05:05	22.1	15.4	22.1	90	19.6	5	10	90	0.00	29.975 
05:10	22.2	14.6	22.2	91	20.0	6	15	90	0.00	29.975 
05:15	22.4	13.9	22.4	91	20.2	7	12	112	0.00	29.972 
05:20	22.7	15.2	22.7	91	20.5	6	14	90	0.00	29.972 
05:25	22.9	14.5	22.9	91	20.7	7	15	90	0.00	29.972 
05:30	22.9	16.4	22.9	91	20.7	5	10	90	0.00	29.963 
05:35	23.0	14.7	23.0	91	20.8	7	14	90	0.00	29.963 
05:40	23.2	16.7	23.2	91	21.0	5	12	90	0.00	29.963 
05:45	23.3	15.9	23.3	91	21.1	6	14	90	0.00	29.960 
05:50	23.6	18.4	23.6	92	21.6	4	7	90	0.00	29.960 
05:55	23.8	17.4	23.8	92	21.8	5	16	90	0.00	29.960 
06:00	23.6	16.2	23.6	92	21.6	6	12	90	0.00	29.956 
06:05	23.8	17.4	23.8	92	21.8	5	9	112	0.00	29.956 
06:10	23.6	16.2	23.6	91	21.4	6	13	112	0.00	29.956 
06:15	23.6	17.2	23.6	91	21.4	5	10	90	0.00	29.962 
06:20	23.5	17.1	23.5	91	21.3	5	10	112	0.00	29.962 
06:25	23.3	16.9	23.3	91	21.1	5	11	90	0.00	29.962 
06:30	23.3	16.9	23.3	91	21.1	5	11	112	0.00	29.960 
06:35	23.3	16.9	23.3	91	21.1	5	12	90	0.00	29.960 
06:40	23.2	15.8	23.2	91	21.0	6	13	90	0.00	29.960 
06:45	23.2	16.7	23.2	91	21.0	5	10	90	0.00	29.957 
06:50	23.2	16.7	23.2	91	21.0	5	11	90	0.00	29.957 
06:55	23.2	16.7	23.2	91	21.0	5	11	90	0.00	29.957 
07:00	23.2	17.9	23.2	91	21.0	4	9	112	0.00	29.957 
07:05	23.3	23.3	23.3	91	21.1	3	9	90	0.00	29.957 
07:10	23.3	18.0	23.3	92	21.3	4	10	90	0.00	29.957 
07:15	23.5	23.5	23.5	92	21.5	3	7	90	0.00	29.957 
07:20	23.6	23.6	23.6	92	21.6	3	7	90	0.00	29.957 
07:25	23.6	18.4	23.6	92	21.6	4	10	90	0.00	29.957 
07:30	23.5	18.3	23.5	91	21.3	4	10	90	0.00	29.956 
07:35	23.3	18.0	23.3	92	21.3	4	8	90	0.00	29.956 
07:40	23.3	23.3	23.3	92	21.3	3	6	90	0.00	29.956 
07:45	23.3	18.0	23.3	92	21.3	4	9	90	0.00	29.955 
07:50	23.5	23.5	23.5	92	21.5	3	6	90	0.00	29.955 
07:55	23.5	23.5	23.5	92	21.5	3	6	112	0.00	29.955 
08:00	23.5	18.3	23.5	92	21.5	4	10	112	0.00	29.956 
08:05	23.5	23.5	23.5	92	21.5	3	7	112	0.00	29.956 
08:10	23.6	23.6	23.6	92	21.6	3	5	112	0.00	29.956 
08:15	23.6	23.6	23.6	92	21.6	3	7	90	0.00	29.956 
08:20	23.6	23.6	23.6	92	21.6	3	7	90	0.00	29.956 
08:25	23.8	23.8	23.8	92	21.8	3	8	90	0.00	29.956 
08:30	23.8	23.8	23.8	92	21.8	2	6	90	0.00	29.958 
08:35	23.9	18.7	23.9	92	21.9	4	9	90	0.00	29.958 
08:40	23.9	23.9	23.9	92	21.9	3	5	112	0.00	29.958 
08:45	24.1	24.1	24.1	92	22.1	3	8	90	0.00	29.960 
08:50	24.1	24.1	24.1	92	22.1	3	7	90	0.00	29.960 
08:55	24.1	24.1	24.1	92	22.1	2	4	90	0.00	29.960 
09:00	24.2	24.2	24.2	92	22.2	3	7	90	0.00	29.947 
09:05	24.4	19.3	24.4	92	22.4	4	7	90	0.00	29.947 
09:10	24.4	24.4	24.4	92	22.4	3	7	112	0.00	29.947 
09:15	24.5	24.5	24.5	92	22.5	3	6	90	0.00	29.945 
09:20	24.5	19.4	24.5	93	22.8	4	6	112	0.00	29.945 
09:25	24.7	24.7	24.7	93	23.0	3	6	112	0.00	29.945 
09:30	24.8	24.8	24.8	93	23.1	3	6	90	0.00	29.936 
09:35	24.8	24.8	24.8	93	23.1	3	7	90	0.00	29.936 
09:40	25.0	25.0	25.0	93	23.3	2	6	90	0.00	29.936 
09:45	25.1	25.1	25.1	93	23.4	3	5	112	0.00	29.929 
09:50	25.3	25.3	25.3	93	23.6	2	6	90	0.00	29.929 
09:55	25.6	25.6	25.6	93	23.9	2	4	90	0.00	29.929 
10:00	25.7	25.7	25.7	93	24.0	2	5	112	0.00	29.924 
10:05	25.7	25.7	25.7	93	24.0	3	8	112	0.00	29.924 
10:10	25.7	25.7	25.7	93	24.0	2	5	112	0.00	29.924 
10:15	25.8	25.8	25.8	93	24.1	1	5	112	0.00	29.935 
10:20	25.8	25.8	25.8	93	24.1	1	4	112	0.00	29.935 
10:25	26.0	26.0	26.0	93	24.3	2	5	112	0.00	29.935 
10:30	26.1	26.1	26.1	93	24.4	2	3	90	0.00	29.928 
10:35	26.3	26.3	26.3	93	24.6	1	4	90	0.00	29.928 
10:40	26.3	26.3	26.3	93	24.6	3	6	90	0.00	29.928 
10:45	26.4	26.4	26.4	93	24.7	2	4	90	0.00	29.915 
10:50	26.6	26.6	26.6	93	24.9	3	7	112	0.00	29.915 
10:55	26.7	26.7	26.7	94	25.2	2	6	112	0.00	29.915 
11:00	26.9	26.9	26.9	94	25.4	3	6	112	0.00	29.914 
11:05	27.0	27.0	27.0	94	25.5	2	7	112	0.00	29.914 
11:10	27.3	27.3	27.3	94	25.8	2	4	112	0.00	29.914 
11:15	27.6	27.6	27.6	94	26.1	2	3	112	0.00	29.913 
11:20	27.8	27.8	27.8	94	26.3	2	4	112	0.00	29.913 
11:25	27.9	27.9	27.9	94	26.4	2	6	112	0.00	29.913 
11:30	28.2	28.2	28.2	94	26.7	1	3	112	0.00	29.922 
11:35	28.4	28.4	28.4	94	26.9	2	4	90	0.00	29.922 
11:40	28.5	28.5	28.5	94	27.0	2	4	90	0.00	29.922 
11:45	28.7	28.7	28.7	94	27.2	2	4	90	0.00	29.916 
11:50	28.8	28.8	28.8	94	27.3	1	3	90	0.00	29.916 
11:55	29.0	29.0	29.0	94	27.5	1	4	90	0.00	29.916 
12:00	29.1	29.1	29.1	94	27.6	1	3	112	0.00	29.916 
12:05	29.4	29.4	29.4	94	27.9	2	5	112	0.00	29.916 
12:10	29.5	29.5	29.5	95	28.2	1	4	112	0.00	29.916 
12:15	29.7	29.7	29.7	95	28.4	0	3	112	0.00	29.912 
12:20	29.8	29.8	29.8	95	28.5	1	3	112	0.00	29.912 
12:25	30.0	30.0	30.0	95	28.7	1	3	112	0.00	29.912 
12:30	30.1	30.1	30.1	95	28.8	1	3	112	0.00	29.907 
12:35	30.3	30.3	30.3	95	29.0	0	2	112	0.00	29.907 
12:40	30.6	30.6	30.6	95	29.3	0	2	112	0.00	29.907 
12:45	30.7	30.7	30.7	95	29.4	0	2	112	0.00	29.902 
12:50	30.9	30.9	30.9	95	29.6	0	1	112	0.00	29.902 
12:55	30.9	30.9	30.9	95	29.6	1	4	112	0.00	29.902 
13:00	30.9	30.9	30.9	95	29.6	0	3	112	0.00	29.898 
13:05	31.0	31.0	31.0	95	29.7	1	2	112	0.00	29.898 
13:10	31.2	31.2	31.2	95	29.9	0	2	112	0.00	29.898 
13:15	31.3	31.3	31.3	95	30.0	0	2	112	0.00	29.897 
13:20	31.3	31.3	31.3	95	30.0	1	3	112	0.00	29.897 
13:25	31.5	31.5	31.5	95	30.2	0	2	112	0.00	29.897 
13:30	31.5	31.5	31.5	95	30.2	0	1	112	0.00	29.895 
13:35	31.6	31.6	31.6	95	30.3	0	2	112	0.00	29.895 
13:40	31.6	31.6	31.6	95	30.3	0	1	112	0.00	29.895 
13:45	31.8	31.8	31.8	95	30.5	0	1	112	0.00	29.896 
13:50	31.8	31.8	31.8	95	30.5	0	1	112	0.00	29.896 
13:55	31.9	31.9	31.9	95	30.6	0	1	112	0.00	29.896 
14:00	32.1	32.1	32.1	96	31.1	0	1	112	0.00	29.893 
14:05	32.1	32.1	32.1	96	31.1	0	0	---	0.00	29.893 
14:10	32.2	32.2	32.2	96	31.2	0	0	---	0.00	29.893 
14:15	32.4	32.4	32.4	96	31.4	0	0	---	0.00	29.894 
14:20	32.5	32.5	32.5	96	31.5	0	0	---	0.00	29.894 
14:25	32.5	32.5	32.5	96	31.5	0	2	112	0.00	29.894 
14:30	32.7	32.7	32.7	96	31.7	0	0	---	0.00	29.896 
14:35	32.8	32.8	32.8	96	31.8	0	1	112	0.00	29.896 
14:40	32.9	32.9	32.9	96	31.9	0	1	112	0.00	29.896 
14:45	33.2	33.2	33.2	96	32.2	0	3	112	0.00	29.901 
14:50	33.4	33.4	33.4	96	32.4	0	1	112	0.00	29.901 
14:55	33.5	33.5	33.5	96	32.5	0	2	112	0.00	29.901 
15:00	33.7	33.7	33.7	96	32.7	0	2	112	0.00	29.905 
15:05	33.8	33.8	33.8	96	32.8	0	2	112	0.01	29.905 
15:10	34.0	34.0	34.0	96	33.0	1	2	112	0.00	29.905 
15:15	34.1	34.1	34.1	96	33.1	1	3	112	0.01	29.902 
15:20	34.1	34.1	34.1	96	33.1	1	4	248	0.00	29.902 
15:25	34.3	34.3	34.3	96	33.3	2	4	248	0.00	29.902 
15:30	34.3	34.3	34.3	96	33.3	1	4	248	0.01	29.901 
15:35	34.3	34.3	34.3	96	33.3	1	3	248	0.00	29.901 
15:40	34.3	34.3	34.3	96	33.3	1	5	248	0.00	29.901 
15:45	34.3	34.3	34.3	96	33.3	2	9	248	0.01	29.900 
15:50	34.3	34.3	34.3	96	33.3	1	3	248	0.00	29.900 
15:55	34.3	34.3	34.3	96	33.3	1	6	248	0.00	29.900 
16:00	34.3	34.3	34.3	96	33.3	1	5	248	0.00	29.904 
16:05	34.1	34.1	34.1	96	33.1	1	5	248	0.00	29.904 
16:10	34.1	34.1	34.1	96	33.1	1	4	248	0.01	29.904 
16:15	34.1	34.1	34.1	96	33.1	1	5	248	0.00	29.905 
16:20	34.1	34.1	34.1	96	33.1	1	3	248	0.00	29.905 
16:25	34.0	34.0	34.0	96	33.0	2	4	248	0.00	29.905 
16:30	34.0	34.0	34.0	96	33.0	2	6	248	0.00	29.907 
16:35	33.8	33.8	33.8	96	32.8	1	5	248	0.00	29.907 
16:40	33.8	33.8	33.8	96	32.8	1	4	248	0.00	29.907 
16:45	33.8	33.8	33.8	96	32.8	1	5	248	0.00	29.912 
16:50	33.8	33.8	33.8	96	32.8	1	3	248	0.00	29.912 
16:55	33.8	33.8	33.8	96	32.8	2	5	248	0.01	29.912 
17:00	33.7	33.7	33.7	96	32.7	2	9	248	0.00	29.910 
17:05	33.7	33.7	33.7	96	32.7	2	5	248	0.00	29.910 
17:10	33.7	33.7	33.7	96	32.7	1	2	248	0.00	29.910 
17:15	33.7	33.7	33.7	96	32.7	1	3	248	0.00	29.913 
17:20	33.7	33.7	33.7	96	32.7	1	4	248	0.00	29.913 
17:25	33.7	33.7	33.7	96	32.7	1	4	248	0.00	29.913 
17:30	33.7	33.7	33.7	96	32.7	1	2	248	0.00	29.918 
17:35	33.7	33.7	33.7	96	32.7	1	4	248	0.00	29.918 
17:40	33.7	33.7	33.7	96	32.7	1	4	248	0.00	29.918 
17:45	33.7	33.7	33.7	96	32.7	1	3	248	0.00	29.921 
17:50	33.5	33.5	33.5	96	32.5	0	3	248	0.00	29.921 
17:55	33.5	33.5	33.5	96	32.5	0	3	248	0.00	29.921 
18:00	33.5	33.5	33.5	96	32.5	1	3	248	0.00	29.920 
18:05	33.5	33.5	33.5	96	32.5	0	3	248	0.00	29.920 
18:10	33.5	33.5	33.5	96	32.5	0	2	248	0.00	29.920 
18:15	33.5	33.5	33.5	96	32.5	1	4	248	0.01	29.930 
18:20	33.5	33.5	33.5	96	32.5	0	3	248	0.00	29.930 
18:25	33.5	33.5	33.5	96	32.5	1	6	270	0.00	29.930 
18:30	33.5	33.5	33.5	96	32.5	1	3	270	0.00	29.931 
18:35	33.4	33.4	33.4	96	32.4	1	3	225	0.00	29.931 
18:40	33.4	33.4	33.4	96	32.4	1	4	225	0.00	29.931 
18:45	33.4	33.4	33.4	96	32.4	1	4	225	0.00	29.936 
18:50	33.4	33.4	33.4	96	32.4	1	2	225	0.00	29.936 
18:55	33.4	33.4	33.4	96	32.4	0	2	225	0.00	29.936 
19:00	33.4	33.4	33.4	96	32.4	1	5	225	0.00	29.941 
19:05	33.4	33.4	33.4	96	32.4	0	3	248	0.00	29.941 
19:10	33.4	33.4	33.4	96	32.4	1	3	248	0.00	29.941 
19:15	33.4	33.4	33.4	96	32.4	0	2	248	0.00	29.949 
19:20	33.4	33.4	33.4	95	32.1	0	3	248	0.00	29.949 
19:25	33.4	33.4	33.4	95	32.1	0	2	248	0.00	29.949 
19:30	33.4	33.4	33.4	95	32.1	0	2	248	0.00	29.941 
19:35	33.2	33.2	33.2	95	31.9	0	2	248	0.00	29.941 
19:40	33.2	33.2	33.2	95	31.9	0	1	248	0.00	29.941 
19:45	33.2	33.2	33.2	95	31.9	0	1	248	0.00	29.948 
19:50	33.2	33.2	33.2	95	31.9	0	3	248	0.00	29.948 
19:55	33.2	33.2	33.2	95	31.9	0	2	248	0.00	29.948 
20:00	33.2	33.2	33.2	95	31.9	0	2	248	0.00	29.946 
20:05	33.2	33.2	33.2	95	31.9	0	2	248	0.00	29.946 
20:10	33.2	33.2	33.2	95	31.9	0	1	248	0.00	29.946 
20:15	33.2	33.2	33.2	95	31.9	0	1	248	0.00	29.942 
20:20	33.2	33.2	33.2	95	31.9	0	4	248	0.00	29.942 
20:25	33.2	33.2	33.2	95	31.9	0	1	248	0.00	29.942 
20:30	33.2	33.2	33.2	95	31.9	0	2	248	0.00	29.944 
20:35	33.2	33.2	33.2	95	31.9	0	1	248	0.00	29.944 
20:40	33.2	33.2	33.2	95	31.9	0	2	248	0.00	29.944 
20:45	33.2	33.2	33.2	95	31.9	0	3	248	0.00	29.949 
20:50	33.2	33.2	33.2	95	31.9	0	3	248	0.00	29.949 
20:55	33.2	33.2	33.2	95	31.9	0	1	248	0.00	29.949 
21:00	33.2	33.2	33.2	95	31.9	0	1	248	0.00	29.948 
21:05	33.2	33.2	33.2	95	31.9	0	1	248	0.00	29.948 
21:10	33.2	33.2	33.2	95	31.9	0	3	248	0.00	29.948 
21:15	33.2	33.2	33.2	94	31.7	0	3	248	0.00	29.947 
21:20	33.2	33.2	33.2	94	31.7	0	3	248	0.00	29.947 
21:25	33.2	33.2	33.2	94	31.7	0	3	248	0.00	29.947 
21:30	33.2	33.2	33.2	94	31.7	0	2	248	0.00	29.949 
21:35	33.2	33.2	33.2	94	31.7	0	2	248	0.00	29.949 
21:40	33.1	33.1	33.1	94	31.6	0	3	248	0.00	29.949 
21:45	33.1	33.1	33.1	94	31.6	0	2	248	0.00	29.951 
21:50	33.1	33.1	33.1	94	31.6	0	3	248	0.00	29.951 
21:55	33.1	33.1	33.1	94	31.6	0	2	248	0.00	29.951 
22:00	33.1	33.1	33.1	94	31.6	1	4	248	0.00	29.960 
22:05	32.9	32.9	32.9	94	31.4	2	5	248	0.00	29.960 
22:10	32.7	32.7	32.7	94	31.2	1	3	248	0.00	29.960 
22:15	32.4	32.4	32.4	94	30.9	1	5	248	0.01	29.960 
22:20	32.2	32.2	32.2	94	30.7	1	4	248	0.00	29.960 
22:25	32.1	32.1	32.1	94	30.6	2	4	248	0.00	29.960 
22:30	31.9	31.9	31.9	94	30.4	1	3	248	0.00	29.954 
22:35	31.9	31.9	31.9	94	30.4	1	3	248	0.00	29.954 
22:40	31.9	31.9	31.9	94	30.4	1	3	248	0.00	29.954 
22:45	31.8	31.8	31.8	94	30.3	1	3	248	0.00	29.950 
22:50	31.8	31.8	31.8	93	30.0	0	1	248	0.00	29.950 
22:55	31.8	31.8	31.8	93	30.0	0	2	248	0.00	29.950 
23:00	31.8	31.8	31.8	93	30.0	1	2	248	0.00	29.950 
23:05	31.8	31.8	31.8	93	30.0	0	2	248	0.00	29.950 
23:10	31.8	31.8	31.8	93	30.0	1	6	248	0.00	29.950 
23:15	31.6	31.6	31.6	93	29.8	1	4	248	0.00	29.948 
23:20	31.6	31.6	31.6	93	29.8	0	3	248	0.00	29.948 
23:25	31.6	31.6	31.6	92	29.5	1	5	248	0.00	29.948 
23:30	31.6	31.6	31.6	92	29.5	1	3	248	0.00	29.948 
23:35	31.6	31.6	31.6	92	29.5	1	4	248	0.00	29.948 
23:40	31.6	31.6	31.6	92	29.5	1	3	248	0.00	29.948 
23:45	31.6	31.6	31.6	92	29.5	1	4	248	0.00	29.950 
23:50	31.6	31.6	31.6	92	29.5	1	4	248	0.00	29.950 
23:55	31.6	31.6	31.6	92	29.5	1	3	248	0.00	29.950 

CoCoRaHS
IN-AL-39
A2 Web Hosting
Creative Commons License
GoDaddy
search engine by freefind advanced

loaded 2018-11-16 23:29:02 • last modified 2010-11-18 10:43:29
Privacy PolicyDisclaimer
• wx.awcolley.com is powered by PmWiki v.2002016 •
• all content (unless otherwise noted) © 2018 A W Colley